Emilianopolis, Brazil
Current Conditions -  °F | °C
As of 10:00 AM on Monday 26 Jan 2015 (Local Time) from SBDN Reporting Station
Few Clouds Few Clouds  
Wind Chill: 82°   Ceiling: Unl
Heat Index: 85°   Visibility: 6mi
Dew Point: 68°   Wind: 8mph
Humidity: 62%   Direction: 30°NNE
Pressure: 29.97"   Gusts: NA
Location:  21.83°S, 51.47°W
Report Text: SBDN 261200Z 03007KT 9999 FEW018 28/20 Q1015
Loading
Personal Weather Stations






























Interactive Weather Map New forecast layout! Learn more

10-Day Weather Forecast

Advertisements
Track Severe Weather on mobile